Time;durP1;ratioP1;P1;durP2;ratioP2;P2;SDS_P1;SDS_P2;PMS_P1;PMS_P2;Temp;Humidity;BMP_temperature;BMP_pressure;BME280_temperature;BME280_humidity;BME280_pressure;Samples;Min_cycle;Max_cycle;Signal;HPM_P1;HPM_P2
2023/07/24 00:01:19;;;;;;;7.30;4.65;;;21.80;93.30;;;;;;5088023;28;20454;-64
2023/07/24 00:03:45;;;;;;;7.82;5.13;;;22.10;93.40;;;;;;5092646;28;20096;-65
2023/07/24 00:06:11;;;;;;;8.52;4.93;;;21.90;93.30;;;;;;5090558;28;22034;-68
2023/07/24 00:08:37;;;;;;;8.52;4.70;;;22.10;93.40;;;;;;5087964;28;20124;-66
2023/07/24 00:11:05;;;;;;;6.25;4.28;;;;;;;;;;5085194;28;20367;-65
2023/07/24 00:13:31;;;;;;;7.15;4.30;;;21.80;93.30;;;;;;5092543;28;20083;-63
2023/07/24 00:15:59;;;;;;;8.57;5.28;;;21.90;93.30;;;;;;5092125;28;20078;-62
2023/07/24 00:18:25;;;;;;;7.38;4.65;;;;;;;;;;5092839;28;20047;-67
2023/07/24 00:20:51;;;;;;;7.90;4.50;;;22.00;93.40;;;;;;5090062;28;20501;-69
2023/07/24 00:23:17;;;;;;;8.55;4.70;;;21.90;93.30;;;;;;5092640;28;20048;-62
2023/07/24 00:25:43;;;;;;;7.07;4.72;;;22.00;93.40;;;;;;5088359;28;20048;-62
2023/07/24 00:28:08;;;;;;;8.27;5.10;;;21.80;93.30;;;;;;5092663;28;20048;-65
2023/07/24 00:30:34;;;;;;;7.82;4.68;;;21.90;93.30;;;;;;5090174;28;20036;-70
2023/07/24 00:33:00;;;;;;;7.20;4.90;;;21.80;93.30;;;;;;5092073;28;20097;-61
2023/07/24 00:35:26;;;;;;;7.38;4.60;;;21.90;93.40;;;;;;5092426;28;20185;-62
2023/07/24 00:37:52;;;;;;;7.28;4.57;;;;;;;;;;5092434;28;20052;-63
2023/07/24 00:40:19;;;;;;;7.32;5.20;;;;;;;;;;5092219;28;20051;-66
2023/07/24 00:42:48;;;;;;;7.72;4.65;;;21.80;93.40;;;;;;5083443;28;20044;-65
2023/07/24 00:45:14;;;;;;;7.60;4.75;;;21.90;92.00;;;;;;5076372;28;20111;-62
2023/07/24 00:47:41;;;;;;;8.55;4.93;;;21.90;93.40;;;;;;5075919;28;20554;-64
2023/07/24 00:50:08;;;;;;;8.10;5.07;;;21.80;93.40;;;;;;5089205;28;20040;-63
2023/07/24 00:52:33;;;;;;;7.57;4.63;;;22.00;93.40;;;;;;5088544;28;20035;-68
2023/07/24 00:54:59;;;;;;;8.52;4.70;;;22.00;93.00;;;;;;5093406;28;20036;-62
2023/07/24 00:57:25;;;;;;;7.95;4.93;;;21.90;93.40;;;;;;5093157;28;20047;-67
2023/07/24 00:59:51;;;;;;;7.15;4.63;;;21.90;93.40;;;;;;5091230;28;20213;-64
2023/07/24 01:02:17;;;;;;;8.30;4.95;;;;;;;;;;5092385;28;20044;-64
2023/07/24 01:04:43;;;;;;;9.10;5.03;;;21.90;93.40;;;;;;5091130;28;20044;-63
2023/07/24 01:07:08;;;;;;;7.65;4.75;;;21.70;93.30;;;;;;5091466;28;20048;-68
2023/07/24 01:09:35;;;;;;;7.88;4.90;;;;;;;;;;5095815;28;20046;-62
2023/07/24 01:12:20;;;;;;;7.88;5.00;;;22.00;93.50;;;;;;5095201;28;20032;-61
2023/07/24 01:15:33;;;;;;;8.10;4.88;;;21.80;93.40;;;;;;5096091;28;20044;-64
2023/07/24 01:18:08;;;;;;;7.78;5.13;;;21.80;93.40;;;;;;5053037;28;20171;-61
2023/07/24 01:20:34;;;;;;;9.20;5.40;;;21.80;93.40;;;;;;5052126;28;20057;-60
2023/07/24 01:23:07;;;;;;;8.60;4.75;;;21.80;91.90;;;;;;5053019;28;20049;-63
2023/07/24 01:25:35;;;;;;;8.30;5.00;;;21.70;93.30;;;;;;5053142;28;20044;-63
2023/07/24 01:28:01;;;;;;;7.28;5.20;;;21.90;93.40;;;;;;5053048;28;20455;-64
2023/07/24 01:30:27;;;;;;;7.40;4.93;;;21.90;93.40;;;;;;5053043;28;20040;-66
2023/07/24 01:32:52;;;;;;;7.63;5.10;;;21.80;93.40;;;;;;5051877;28;20045;-65
2023/07/24 01:35:18;;;;;;;7.35;4.43;;;21.80;93.40;;;;;;5052673;28;20045;-68
2023/07/24 01:37:44;;;;;;;9.52;5.30;;;;;;;;;;5052887;28;20539;-62
2023/07/24 01:40:10;;;;;;;7.53;5.10;;;21.90;93.40;;;;;;5052947;28;20464;-62
2023/07/24 01:42:36;;;;;;;10.40;5.32;;;22.00;93.40;;;;;;5051363;28;20041;-61
2023/07/24 01:45:03;;;;;;;10.15;5.43;;;22.00;93.50;;;;;;5052113;28;20618;-64
2023/07/24 01:47:29;;;;;;;8.25;5.15;;;22.00;93.40;;;;;;5052396;28;20061;-62
2023/07/24 01:49:56;;;;;;;7.32;4.90;;;;;;;;;;5052640;28;20041;-62
2023/07/24 01:52:21;;;;;;;8.10;5.25;;;22.00;92.30;;;;;;5056379;28;20059;-63
2023/07/24 01:54:47;;;;;;;8.38;5.03;;;21.80;93.50;;;;;;5084879;28;20036;-64
2023/07/24 01:57:13;;;;;;;8.30;4.85;;;22.00;93.50;;;;;;5074837;28;20410;-60
2023/07/24 01:59:39;;;;;;;8.95;5.10;;;21.90;93.50;;;;;;5074608;28;20056;-61
2023/07/24 02:02:04;;;;;;;8.88;5.35;;;21.70;93.40;;;;;;5082313;28;20536;-63
2023/07/24 02:04:30;;;;;;;8.15;5.50;;;21.90;93.50;;;;;;5093115;28;20043;-68
2023/07/24 02:06:56;;;;;;;8.27;5.20;;;21.80;93.40;;;;;;5083393;28;20381;-62
2023/07/24 02:09:22;;;;;;;7.88;5.22;;;22.00;93.50;;;;;;5086373;28;20461;-65
2023/07/24 02:11:47;;;;;;;7.57;5.22;;;21.70;92.80;;;;;;5091683;28;20071;-67
2023/07/24 02:14:13;;;;;;;6.88;5.03;;;21.60;92.00;;;;;;5092388;28;20040;-67
2023/07/24 02:16:39;;;;;;;9.27;5.65;;;21.80;93.50;;;;;;5094028;28;20048;-63
2023/07/24 02:19:05;;;;;;;6.95;4.90;;;21.90;93.50;;;;;;5093161;28;20048;-69
2023/07/24 02:21:31;;;;;;;7.47;5.03;;;21.90;93.50;;;;;;5087969;28;20032;-66
2023/07/24 02:23:57;;;;;;;8.18;5.25;;;;;;;;;;5094621;28;20051;-63
2023/07/24 02:26:23;;;;;;;7.65;5.40;;;21.70;93.50;;;;;;5094108;28;20508;-61
2023/07/24 02:28:49;;;;;;;8.45;5.78;;;21.80;93.70;;;;;;5094711;28;20076;-68
2023/07/24 02:31:15;;;;;;;8.07;5.40;;;;;;;;;;5094006;28;20048;-66
2023/07/24 02:33:41;;;;;;;7.60;5.10;;;21.80;93.50;;;;;;5094170;28;20504;-67
2023/07/24 02:36:07;;;;;;;9.45;5.75;;;21.70;93.50;;;;;;5080275;28;20076;-64
2023/07/24 02:38:33;;;;;;;8.05;5.35;;;21.90;93.50;;;;;;5074263;28;20131;-64
2023/07/24 02:40:59;;;;;;;8.13;5.50;;;;;;;;;;5091483;28;20512;-65
2023/07/24 02:43:25;;;;;;;7.60;5.78;;;21.70;93.50;;;;;;5088959;28;20410;-69
2023/07/24 02:45:51;;;;;;;8.25;5.32;;;;;;;;;;5092766;28;20036;-64
2023/07/24 02:48:16;;;;;;;7.72;5.03;;;21.80;93.50;;;;;;5094166;28;20039;-67
2023/07/24 02:50:42;;;;;;;7.57;4.78;;;21.80;93.50;;;;;;5093397;28;20051;-60
2023/07/24 02:53:08;;;;;;;7.85;5.47;;;21.90;93.50;;;;;;5074244;28;20791;-61
2023/07/24 02:55:33;;;;;;;7.95;5.50;;;21.70;93.50;;;;;;5094137;28;20048;-66
2023/07/24 02:58:00;;;;;;;6.90;4.72;;;;;;;;;;5092932;28;20039;-63
2023/07/24 03:00:26;;;;;;;6.97;5.00;;;21.90;93.60;;;;;;5093512;28;20046;-62
2023/07/24 03:02:52;;;;;;;7.57;5.13;;;21.80;93.50;;;;;;5092935;28;20040;-63
2023/07/24 03:05:18;;;;;;;7.80;5.10;;;21.90;93.50;;;;;;5093477;28;20043;-63
2023/07/24 03:07:44;;;;;;;7.60;5.18;;;21.80;93.50;;;;;;5091059;28;20043;-63
2023/07/24 03:10:10;;;;;;;7.63;4.95;;;;;;;;;;5091873;28;20387;-65
2023/07/24 03:12:36;;;;;;;7.50;5.43;;;21.70;93.50;;;;;;5092491;28;20096;-64
2023/07/24 03:15:01;;;;;;;6.85;4.75;;;21.80;93.50;;;;;;5093287;28;20122;-62
2023/07/24 03:17:27;;;;;;;7.78;4.95;;;21.90;93.50;;;;;;5073525;28;20040;-64
2023/07/24 03:19:54;;;;;;;7.03;4.82;;;21.80;93.50;;;;;;5073300;28;20601;-63
2023/07/24 03:22:20;;;;;;;7.40;5.00;;;;;;;;;;5081911;28;20040;-63
2023/07/24 03:24:46;;;;;;;7.20;4.82;;;22.00;93.60;;;;;;5088898;28;20043;-60
2023/07/24 03:27:11;;;;;;;9.38;5.00;;;21.90;93.50;;;;;;5075252;28;20052;-66
2023/07/24 03:29:37;;;;;;;10.23;5.20;;;21.90;93.50;;;;;;5092694;28;20047;-61
2023/07/24 03:32:03;;;;;;;8.10;4.60;;;21.90;93.50;;;;;;5091695;28;20401;-60
2023/07/24 03:34:29;;;;;;;8.05;5.00;;;21.80;93.50;;;;;;5082765;28;20517;-61
2023/07/24 03:36:55;;;;;;;7.97;4.97;;;21.80;93.50;;;;;;5084741;28;20063;-61
2023/07/24 03:39:21;;;;;;;7.68;5.15;;;;;;;;;;5089877;28;20173;-63
2023/07/24 03:41:46;;;;;;;6.43;4.47;;;21.90;93.50;;;;;;5093301;28;20047;-60
2023/07/24 03:44:12;;;;;;;7.65;4.85;;;21.80;93.50;;;;;;5089527;28;20485;-63
2023/07/24 03:46:38;;;;;;;6.57;4.78;;;21.90;93.60;;;;;;5092896;28;20048;-60
2023/07/24 03:49:04;;;;;;;6.70;4.38;;;22.00;93.50;;;;;;5090762;28;20040;-62
2023/07/24 03:51:30;;;;;;;7.63;4.55;;;;;;;;;;5091251;28;20168;-63
2023/07/24 03:53:55;;;;;;;7.47;4.93;;;22.00;93.60;;;;;;5075969;28;20100;-62
2023/07/24 03:56:22;;;;;;;6.50;4.78;;;;;;;;;;5090097;28;20477;-66
2023/07/24 03:58:47;;;;;;;7.28;4.55;;;21.70;93.40;;;;;;5088643;28;20051;-64
2023/07/24 04:01:13;;;;;;;6.90;4.40;;;21.70;93.40;;;;;;5091292;28;20062;-64
2023/07/24 04:03:39;;;;;;;9.00;5.07;;;21.80;93.50;;;;;;5073787;28;20481;-61
2023/07/24 04:06:05;;;;;;;6.45;4.68;;;22.00;93.50;;;;;;5087923;28;20051;-71
2023/07/24 04:08:30;;;;;;;6.68;4.38;;;21.90;93.50;;;;;;5082446;28;20036;-67
2023/07/24 04:10:56;;;;;;;6.35;4.35;;;22.10;93.50;;;;;;5091854;28;20043;-60
2023/07/24 04:13:22;;;;;;;6.57;4.50;;;21.90;91.90;;;;;;5083877;28;20487;-66
2023/07/24 04:15:48;;;;;;;8.00;5.10;;;21.90;93.50;;;;;;5076987;28;20047;-66
2023/07/24 04:18:14;;;;;;;6.97;4.47;;;21.80;93.40;;;;;;5087520;28;20044;-65
2023/07/24 04:20:40;;;;;;;6.72;4.78;;;;;;;;;;5084390;28;20142;-64
2023/07/24 04:23:06;;;;;;;8.05;4.82;;;21.70;93.40;;;;;;5090215;28;20412;-62
2023/07/24 04:25:31;;;;;;;7.95;4.95;;;21.80;93.20;;;;;;5071882;28;20053;-60
2023/07/24 04:27:57;;;;;;;6.43;4.65;;;21.90;93.50;;;;;;5082262;28;20051;-61
2023/07/24 04:30:23;;;;;;;6.70;4.97;;;21.90;92.30;;;;;;5090280;28;20044;-62
2023/07/24 04:32:49;;;;;;;7.53;4.95;;;21.90;93.50;;;;;;5092375;28;20091;-63
2023/07/24 04:35:15;;;;;;;6.35;4.53;;;21.90;93.20;;;;;;5092404;28;20040;-63
2023/07/24 04:37:41;;;;;;;6.75;4.78;;;21.90;93.70;;;;;;5091146;28;20047;-60
2023/07/24 04:40:07;;;;;;;7.30;4.88;;;22.00;93.50;;;;;;5086854;28;20101;-61
2023/07/24 04:42:33;;;;;;;6.78;4.25;;;22.00;93.50;;;;;;5092378;28;20055;-64
2023/07/24 04:44:58;;;;;;;7.90;4.90;;;21.90;93.60;;;;;;5092673;28;20040;-61
2023/07/24 04:47:24;;;;;;;6.75;4.43;;;21.80;93.40;;;;;;5087115;28;20399;-63
2023/07/24 04:49:50;;;;;;;7.40;4.70;;;21.80;93.50;;;;;;5078452;28;20044;-66
2023/07/24 04:52:16;;;;;;;6.90;4.80;;;21.90;93.50;;;;;;5092428;28;20077;-65
2023/07/24 04:54:42;;;;;;;6.93;4.78;;;21.90;93.50;;;;;;5092238;28;20523;-65
2023/07/24 04:57:07;;;;;;;7.20;4.55;;;21.90;93.50;;;;;;5091358;28;20123;-63
2023/07/24 04:59:33;;;;;;;7.57;4.63;;;21.90;93.50;;;;;;5073269;28;20055;-62
2023/07/24 05:01:59;;;;;;;7.65;4.40;;;21.90;93.50;;;;;;5073137;28;20056;-61
2023/07/24 05:04:25;;;;;;;6.68;4.78;;;21.80;93.50;;;;;;5092192;28;20051;-63
2023/07/24 05:06:51;;;;;;;6.07;4.32;;;21.90;93.50;;;;;;5092097;28;20040;-68
2023/07/24 05:09:16;;;;;;;6.15;4.53;;;22.00;93.60;;;;;;5090668;28;20123;-68
2023/07/24 05:11:44;;;;;;;6.10;4.72;;;21.90;93.60;;;;;;5091348;28;20052;-61
2023/07/24 05:14:10;;;;;;;6.40;4.60;;;22.00;93.50;;;;;;5091024;28;20044;-62
2023/07/24 05:16:36;;;;;;;6.18;4.53;;;22.10;93.60;;;;;;5092029;28;20052;-62
2023/07/24 05:19:02;;;;;;;6.32;4.47;;;21.90;93.50;;;;;;5086136;28;20048;-63
2023/07/24 05:21:28;;;;;;;6.22;4.53;;;21.90;93.40;;;;;;5084317;28;20406;-68
2023/07/24 05:23:53;;;;;;;7.75;5.00;;;21.90;93.50;;;;;;5091655;28;20040;-61
2023/07/24 05:26:19;;;;;;;6.75;4.50;;;22.00;93.10;;;;;;5091924;28;20045;-61
2023/07/24 05:28:46;;;;;;;6.80;4.50;;;;;;;;;;5090367;28;20052;-62
2023/07/24 05:31:11;;;;;;;6.53;4.10;;;22.00;93.50;;;;;;5091936;28;20044;-60
2023/07/24 05:33:37;;;;;;;6.50;4.47;;;22.00;93.50;;;;;;5075353;28;20093;-62
2023/07/24 05:36:03;;;;;;;6.32;4.70;;;22.10;93.70;;;;;;5057506;28;20040;-67
2023/07/24 05:38:29;;;;;;;6.25;4.30;;;21.90;93.60;;;;;;5075427;28;20124;-68
2023/07/24 05:40:59;;;;;;;6.28;4.43;;;22.20;93.50;;;;;;5085520;28;20048;-66
2023/07/24 05:43:25;;;;;;;6.50;4.35;;;22.00;93.60;;;;;;5094406;28;20048;-69
2023/07/24 05:45:51;;;;;;;6.68;4.63;;;22.30;92.00;;;;;;5095191;28;20048;-68
2023/07/24 05:48:17;;;;;;;7.53;4.57;;;22.10;93.60;;;;;;5092459;28;20079;-62
2023/07/24 05:50:43;;;;;;;6.68;4.30;;;22.00;93.50;;;;;;5080208;28;20457;-70
2023/07/24 05:53:09;;;;;;;6.72;4.50;;;22.00;93.40;;;;;;5093027;28;20044;-67
2023/07/24 05:55:35;;;;;;;5.50;4.20;;;22.00;93.50;;;;;;5095063;28;20554;-69
2023/07/24 05:58:01;;;;;;;6.53;4.82;;;22.10;93.50;;;;;;5094792;28;20044;-69
2023/07/24 06:00:27;;;;;;;8.43;4.88;;;22.20;93.50;;;;;;5094941;28;20181;-68
2023/07/24 06:02:53;;;;;;;6.22;4.28;;;22.00;93.40;;;;;;5091983;28;20043;-68
2023/07/24 06:05:19;;;;;;;5.93;3.97;;;22.00;93.40;;;;;;5092254;28;20107;-60
2023/07/24 06:07:48;;;;;;;7.13;5.00;;;22.00;93.40;;;;;;5091540;28;20044;-61
2023/07/24 06:10:14;;;;;;;6.28;4.25;;;22.10;93.40;;;;;;5095147;28;20419;-62
2023/07/24 06:12:40;;;;;;;6.97;4.60;;;22.10;93.30;;;;;;5090746;28;20052;-68
2023/07/24 06:15:06;;;;;;;6.45;4.18;;;22.10;93.40;;;;;;5089488;28;20531;-68
2023/07/24 06:17:32;;;;;;;6.60;4.57;;;;;;;;;;5086496;28;20044;-69
2023/07/24 06:19:58;;;;;;;5.82;4.10;;;22.00;93.40;;;;;;5085165;28;20063;-68
2023/07/24 06:22:24;;;;;;;6.25;4.45;;;;;;;;;;5089308;28;20698;-67
2023/07/24 06:24:50;;;;;;;7.35;4.50;;;22.20;93.40;;;;;;5085090;28;20093;-68
2023/07/24 06:27:16;;;;;;;6.60;4.55;;;22.20;92.80;;;;;;5089887;28;20131;-67
2023/07/24 06:29:42;;;;;;;5.93;4.28;;;22.40;92.20;;;;;;5091723;28;20047;-67
2023/07/24 06:32:08;;;;;;;6.25;4.43;;;;;;;;;;5076094;28;20468;-68
2023/07/24 06:34:34;;;;;;;6.43;4.38;;;22.30;93.40;;;;;;5089591;28;20042;-68
2023/07/24 06:37:00;;;;;;;6.15;4.50;;;22.20;93.40;;;;;;5093196;28;20474;-68
2023/07/24 06:39:26;;;;;;;6.05;4.35;;;22.20;93.50;;;;;;5091568;28;20056;-61
2023/07/24 06:41:52;;;;;;;7.07;4.32;;;22.20;93.40;;;;;;5089940;28;20048;-65
2023/07/24 06:44:18;;;;;;;6.18;4.40;;;22.40;93.50;;;;;;5090563;28;20416;-65
2023/07/24 06:46:44;;;;;;;6.38;3.88;;;22.20;93.40;;;;;;5092712;28;20132;-61
2023/07/24 06:49:11;;;;;;;8.02;4.13;;;;;;;;;;5090642;28;20040;-63
2023/07/24 06:51:38;;;;;;;6.28;4.05;;;;;;;;;;5087725;28;20044;-63
2023/07/24 06:54:04;;;;;;;6.25;4.30;;;22.20;93.40;;;;;;5091160;28;20062;-66
2023/07/24 06:56:30;;;;;;;6.22;3.92;;;22.20;93.40;;;;;;5090700;28;20042;-61
2023/07/24 06:58:56;;;;;;;6.55;4.43;;;22.30;93.40;;;;;;5084352;28;20059;-61
2023/07/24 07:01:22;;;;;;;7.10;4.10;;;22.30;93.40;;;;;;5085433;28;20048;-65
2023/07/24 07:03:48;;;;;;;6.38;3.88;;;22.50;93.40;;;;;;5091325;28;20044;-62
2023/07/24 07:06:13;;;;;;;6.05;4.30;;;22.40;93.40;;;;;;5093347;28;20111;-60
2023/07/24 07:08:40;;;;;;;6.40;4.80;;;;;;;;;;5074298;28;20048;-63
2023/07/24 07:11:05;;;;;;;5.82;4.35;;;22.30;93.40;;;;;;5090571;28;20444;-66
2023/07/24 07:13:31;;;;;;;6.68;4.28;;;22.40;93.40;;;;;;5085979;28;20093;-60
2023/07/24 07:15:57;;;;;;;7.28;4.20;;;22.40;93.40;;;;;;5079130;28;20036;-64
2023/07/24 07:18:23;;;;;;;7.15;4.45;;;22.30;93.40;;;;;;5090530;28;20125;-63
2023/07/24 07:20:50;;;;;;;7.97;4.78;;;22.40;93.30;;;;;;5079281;28;20032;-60
2023/07/24 07:23:15;;;;;;;6.45;4.47;;;22.30;93.30;;;;;;5090781;28;20040;-60
2023/07/24 07:25:43;;;;;;;5.95;4.20;;;22.30;93.30;;;;;;5093364;28;20040;-66
2023/07/24 07:28:09;;;;;;;6.60;4.20;;;22.20;93.30;;;;;;5086650;28;20048;-60
2023/07/24 07:30:35;;;;;;;6.78;4.18;;;22.40;93.40;;;;;;5083063;28;20040;-61
2023/07/24 07:33:01;;;;;;;6.75;4.60;;;22.40;93.40;;;;;;5085672;28;20382;-63
2023/07/24 07:35:26;;;;;;;7.57;4.75;;;22.50;93.40;;;;;;5088319;28;20120;-66
2023/07/24 07:37:52;;;;;;;6.45;4.80;;;22.40;91.80;;;;;;5088145;28;20043;-66
2023/07/24 07:40:18;;;;;;;7.70;4.57;;;22.40;93.30;;;;;;5089420;28;20059;-67
2023/07/24 07:42:45;;;;;;;8.32;5.10;;;22.60;93.50;;;;;;5089705;28;20106;-61
2023/07/24 07:45:11;;;;;;;7.50;4.85;;;22.50;93.40;;;;;;5089340;28;20051;-61
2023/07/24 07:47:36;;;;;;;6.82;4.75;;;22.40;93.30;;;;;;5086866;28;20052;-64
2023/07/24 07:50:03;;;;;;;8.05;5.15;;;22.70;93.50;;;;;;5084479;28;20048;-70
2023/07/24 07:52:28;;;;;;;7.32;5.20;;;22.40;93.30;;;;;;5086418;28;20645;-73
2023/07/24 07:54:54;;;;;;;8.35;5.35;;;22.60;93.30;;;;;;5090868;28;20118;-76
2023/07/24 07:57:20;;;;;;;9.43;6.05;;;22.70;93.30;;;;;;5056302;28;20398;-62
2023/07/24 07:59:46;;;;;;;12.48;6.68;;;22.60;93.30;;;;;;5087243;28;20084;-69
2023/07/24 08:02:11;;;;;;;10.75;7.35;;;22.60;93.30;;;;;;5092214;28;20059;-62
2023/07/24 08:04:37;;;;;;;11.20;7.03;;;22.50;93.40;;;;;;5072137;28;20122;-61
2023/07/24 08:07:03;;;;;;;9.93;6.82;;;22.50;93.40;;;;;;5089752;28;20104;-68
2023/07/24 08:09:29;;;;;;;10.13;7.40;;;;;;;;;;5089028;28;20473;-66
2023/07/24 08:11:55;;;;;;;11.90;7.57;;;22.50;93.80;;;;;;5091711;28;20603;-69
2023/07/24 08:14:21;;;;;;;14.32;8.15;;;22.50;93.70;;;;;;5090289;28;20127;-70
2023/07/24 08:16:50;;;;;;;11.15;7.97;;;22.60;92.60;;;;;;5092147;28;20048;-61
2023/07/24 08:19:15;;;;;;;12.10;7.72;;;22.30;93.70;;;;;;5091497;28;20048;-62
2023/07/24 08:21:41;;;;;;;11.10;8.10;;;22.50;93.80;;;;;;5084099;28;20059;-63
2023/07/24 08:24:07;;;;;;;11.80;7.90;;;22.30;93.90;;;;;;5085003;28;20040;-62
2023/07/24 08:26:33;;;;;;;10.40;7.55;;;22.40;94.00;;;;;;5092448;28;20052;-62
2023/07/24 08:28:59;;;;;;;10.48;7.50;;;22.40;92.80;;;;;;5090462;28;20048;-61
2023/07/24 08:31:24;;;;;;;12.38;8.70;;;22.40;94.00;;;;;;5088725;28;20080;-65
2023/07/24 08:33:50;;;;;;;12.35;8.00;;;22.50;94.30;;;;;;5089418;28;20036;-59
2023/07/24 08:36:16;;;;;;;16.77;8.57;;;22.40;94.00;;;;;;5089048;28;20178;-71
2023/07/24 08:38:42;;;;;;;13.80;8.30;;;22.40;94.40;;;;;;5085704;28;20521;-65
2023/07/24 08:41:09;;;;;;;12.60;8.52;;;22.30;92.90;;;;;;5088568;28;20093;-63
2023/07/24 08:43:36;;;;;;;12.75;8.80;;;;;;;;;;5081184;28;20044;-67
2023/07/24 08:46:03;;;;;;;13.95;8.70;;;22.30;92.60;;;;;;5085824;28;20052;-68
2023/07/24 08:48:39;;;;;;;21.38;10.18;;;22.30;94.10;;;;;;5086816;28;20070;-72
2023/07/24 08:51:13;;;;;;;14.43;9.32;;;22.50;94.00;;;;;;5088034;28;20044;-63
2023/07/24 08:53:40;;;;;;;12.55;8.82;;;22.40;94.00;;;;;;5089352;28;20088;-71
2023/07/24 08:56:10;;;;;;;15.18;10.20;;;22.40;94.00;;;;;;5089419;28;20460;-64
2023/07/24 08:58:36;;;;;;;16.08;10.05;;;22.50;94.20;;;;;;5091000;28;20048;-63
2023/07/24 09:01:03;;;;;;;15.00;9.70;;;22.40;94.00;;;;;;5091179;28;20131;-70
2023/07/24 09:03:30;;;;;;;13.63;9.73;;;22.30;94.00;;;;;;5089518;28;20036;-76
2023/07/24 09:05:56;;;;;;;13.40;10.00;;;22.50;94.40;;;;;;5093413;28;20394;-75
2023/07/24 09:08:49;;;;;;;12.40;9.57;;;22.60;93.00;;;;;;5092526;28;20050;-61
2023/07/24 09:11:14;;;;;;;12.65;8.80;;;22.40;93.90;;;;;;5092626;28;20052;-63
2023/07/24 09:13:43;;;;;;;15.02;9.32;;;22.50;93.90;;;;;;5092941;28;20119;-61
2023/07/24 09:16:09;;;;;;;14.07;10.13;;;22.40;93.90;;;;;;5093796;28;20032;-60
2023/07/24 09:18:41;;;;;;;12.98;9.70;;;22.40;92.00;;;;;;5093871;28;20490;-63
2023/07/24 09:21:08;;;;;;;14.90;9.70;;;22.30;93.80;;;;;;5077312;28;20044;-60
2023/07/24 09:23:33;;;;;;;13.07;9.18;;;22.30;93.80;;;;;;5094738;28;20393;-60
2023/07/24 09:26:04;;;;;;;12.95;9.10;;;22.40;93.80;;;;;;5092340;28;20043;-60
2023/07/24 09:28:30;;;;;;;13.30;9.88;;;22.40;93.90;;;;;;5074023;28;20539;-61
2023/07/24 09:30:56;;;;;;;11.90;8.73;;;22.50;93.80;;;;;;5090420;28;20047;-64
2023/07/24 09:33:40;;;;;;;13.57;8.18;;;22.50;93.80;;;;;;5093440;28;20047;-71
2023/07/24 09:36:10;;;;;;;13.02;8.68;;;22.50;93.70;;;;;;5083353;28;20101;-75
2023/07/24 09:38:37;;;;;;;13.88;8.65;;;22.60;93.80;;;;;;5091930;28;20044;-70
2023/07/24 09:41:03;;;;;;;13.35;8.05;;;;;;;;;;5095329;28;20043;-70
2023/07/24 09:43:29;;;;;;;12.15;7.80;;;22.50;93.70;;;;;;5093482;28;20095;-67
2023/07/24 09:45:55;;;;;;;12.45;8.85;;;22.80;93.80;;;;;;5093420;28;20048;-67
2023/07/24 09:48:25;;;;;;;13.55;8.43;;;22.80;93.90;;;;;;5089799;28;20091;-65
2023/07/24 09:50:58;;;;;;;14.32;9.80;;;22.70;93.80;;;;;;5092749;28;20180;-70
2023/07/24 09:53:36;;;;;;;14.52;10.38;;;22.90;93.70;;;;;;5090362;28;20056;-73
2023/07/24 09:56:07;;;;;;;14.23;9.43;;;22.80;93.60;;;;;;5093130;28;20040;-72
2023/07/24 09:58:39;;;;;;;12.35;9.48;;;23.00;93.60;;;;;;5091400;28;20382;-64
2023/07/24 10:01:07;;;;;;;12.15;9.98;;;23.00;93.50;;;;;;5093798;28;20048;-74
2023/07/24 10:03:49;;;;;;;15.00;9.20;;;23.10;93.30;;;;;;5088423;28;20045;-67
2023/07/24 10:06:17;;;;;;;14.02;9.35;;;23.10;92.60;;;;;;5087193;28;20105;-68
2023/07/24 10:08:43;;;;;;;13.07;9.23;;;23.10;93.30;;;;;;5090681;28;20151;-65
2023/07/24 10:11:10;;;;;;;16.83;9.77;;;23.30;93.30;;;;;;5094042;28;20040;-66
2023/07/24 10:13:37;;;;;;;16.83;10.15;;;23.30;93.60;;;;;;5094222;28;20100;-68
2023/07/24 10:16:05;;;;;;;12.65;9.95;;;23.40;92.00;;;;;;5093409;28;20040;-69
2023/07/24 10:18:30;;;;;;;13.32;9.45;;;23.30;93.10;;;;;;5090572;28;20494;-72
2023/07/24 10:21:04;;;;;;;11.40;8.63;;;23.30;93.00;;;;;;5084949;28;20102;-62
2023/07/24 10:23:30;;;;;;;12.00;8.80;;;23.30;92.90;;;;;;5083039;28;20072;-75
2023/07/24 10:25:55;;;;;;;14.80;9.10;;;23.40;91.90;;;;;;5091477;28;20075;-71
2023/07/24 10:28:31;;;;;;;12.57;8.38;;;23.60;92.70;;;;;;5087222;28;20083;-71
2023/07/24 10:30:59;;;;;;;14.10;9.20;;;23.60;92.60;;;;;;5090611;28;20041;-68
2023/07/24 10:33:28;;;;;;;12.15;9.10;;;23.70;91.60;;;;;;5092180;28;20105;-74
2023/07/24 10:35:55;;;;;;;15.75;9.05;;;23.70;92.60;;;;;;5092068;28;20044;-72
2023/07/24 10:38:32;;;;;;;28.98;9.85;;;23.50;92.40;;;;;;5086964;28;20051;-63
2023/07/24 10:41:02;;;;;;;14.48;8.52;;;23.50;92.50;;;;;;5057178;28;20053;-60
2023/07/24 10:43:28;;;;;;;17.58;8.35;;;23.80;91.60;;;;;;5090856;28;20393;-61
2023/07/24 10:45:54;;;;;;;17.05;7.93;;;23.60;92.40;;;;;;5092021;28;20047;-62
2023/07/24 10:48:21;;;;;;;14.18;7.38;;;23.80;92.50;;;;;;5093423;28;20044;-60
2023/07/24 10:50:48;;;;;;;14.05;8.05;;;23.70;91.30;;;;;;5089477;28;20390;-61
2023/07/24 10:53:15;;;;;;;12.10;8.07;;;23.80;91.30;;;;;;5093894;28;20562;-63
2023/07/24 10:55:42;;;;;;;13.63;8.10;;;23.70;92.10;;;;;;5091420;28;20096;-60
2023/07/24 10:58:08;;;;;;;13.70;7.22;;;24.20;92.30;;;;;;5091367;28;20044;-67
2023/07/24 11:00:34;;;;;;;10.75;6.97;;;23.80;90.60;;;;;;5091207;28;20044;-66
2023/07/24 11:03:00;;;;;;;13.15;7.38;;;23.80;91.90;;;;;;5093149;28;20496;-67
2023/07/24 11:05:26;;;;;;;10.50;6.82;;;24.00;91.80;;;;;;5088974;28;20040;-61
2023/07/24 11:07:52;;;;;;;14.70;7.75;;;23.90;91.70;;;;;;5089385;28;20413;-66
2023/07/24 11:10:21;;;;;;;14.20;6.82;;;24.00;91.70;;;;;;5090678;28;20036;-67
2023/07/24 11:12:47;;;;;;;11.20;6.50;;;24.10;90.80;;;;;;5092107;28;20055;-60
2023/07/24 11:15:13;;;;;;;12.52;7.13;;;23.90;91.90;;;;;;5090142;28;20037;-70
2023/07/24 11:17:40;;;;;;;10.82;6.72;;;23.70;91.70;;;;;;5092797;28;20055;-62
2023/07/24 11:20:13;;;;;;;12.55;6.57;;;23.90;92.00;;;;;;5088685;28;20127;-61
2023/07/24 11:22:40;;;;;;;10.13;7.03;;;23.90;92.00;;;;;;5093659;28;20452;-65
2023/07/24 11:25:06;;;;;;;10.98;7.65;;;23.90;90.90;;;;;;5091251;28;20083;-69
2023/07/24 11:27:32;;;;;;;13.32;8.23;;;23.80;92.10;;;;;;5088598;28;20083;-70
2023/07/24 11:29:58;;;;;;;11.18;8.13;;;23.90;90.90;;;;;;5082087;28;20040;-60
2023/07/24 11:32:24;;;;;;;12.77;9.07;;;23.60;90.80;;;;;;5091725;28;20047;-61
2023/07/24 11:34:50;;;;;;;11.30;9.13;;;23.80;90.90;;;;;;5088986;28;20070;-60
2023/07/24 11:37:16;;;;;;;12.32;8.93;;;23.70;91.00;;;;;;5093502;28;20052;-68
2023/07/24 11:39:42;;;;;;;12.63;9.35;;;23.80;92.70;;;;;;5090139;28;20633;-64
2023/07/24 11:42:08;;;;;;;13.68;9.57;;;23.80;91.10;;;;;;5088483;28;20097;-69
2023/07/24 11:44:34;;;;;;;13.23;8.48;;;23.80;92.30;;;;;;5090473;28;20050;-73
2023/07/24 11:47:06;;;;;;;11.55;8.43;;;23.90;92.20;;;;;;5087210;28;20048;-61
2023/07/24 11:49:32;;;;;;;14.93;7.95;;;24.00;91.00;;;;;;5092307;28;20047;-60
2023/07/24 11:52:04;;;;;;;15.32;7.88;;;23.90;90.90;;;;;;5084800;28;20040;-62
2023/07/24 11:54:30;;;;;;;16.55;7.90;;;23.80;90.90;;;;;;5091976;28;20052;-62
2023/07/24 11:56:56;;;;;;;11.18;7.70;;;24.00;90.80;;;;;;5092576;28;20062;-68
2023/07/24 11:59:22;;;;;;;13.60;6.93;;;23.90;90.70;;;;;;5092067;28;20066;-69
2023/07/24 12:01:48;;;;;;;15.48;7.93;;;23.90;92.00;;;;;;5086671;28;20055;-63
2023/07/24 12:04:17;;;;;;;13.43;7.57;;;24.00;92.00;;;;;;5083314;28;20398;-65
2023/07/24 12:06:43;;;;;;;11.13;7.60;;;23.70;90.80;;;;;;5084972;28;20111;-64
2023/07/24 12:09:10;;;;;;;11.68;7.00;;;23.80;90.70;;;;;;5090994;28;20127;-69
2023/07/24 12:11:46;;;;;;;11.30;7.20;;;23.80;92.00;;;;;;5090117;28;20109;-61
2023/07/24 12:14:12;;;;;;;13.07;6.93;;;24.10;91.00;;;;;;5091176;28;20059;-71
2023/07/24 12:16:38;;;;;;;12.20;6.97;;;24.10;90.90;;;;;;5090543;28;20047;-67
2023/07/24 12:19:04;;;;;;;11.35;6.50;;;23.70;91.90;;;;;;5087098;28;20048;-61
2023/07/24 12:21:30;;;;;;;11.20;6.85;;;23.80;92.00;;;;;;5089323;28;20040;-65
2023/07/24 12:23:55;;;;;;;8.77;6.80;;;23.70;91.90;;;;;;5090684;28;20036;-63
2023/07/24 12:26:22;;;;;;;7.93;5.82;;;24.00;90.80;;;;;;5091620;28;20409;-66
2023/07/24 12:28:47;;;;;;;11.43;6.30;;;24.00;90.90;;;;;;5092451;28;20094;-68
2023/07/24 12:31:13;;;;;;;9.15;6.18;;;23.90;92.00;;;;;;5086543;28;20094;-61
2023/07/24 12:33:39;;;;;;;8.40;5.88;;;24.10;92.00;;;;;;5079454;28;20036;-62
2023/07/24 12:36:05;;;;;;;8.93;5.97;;;23.80;90.60;;;;;;5090307;28;20044;-66
2023/07/24 12:38:31;;;;;;;9.50;5.95;;;23.70;90.80;;;;;;5076885;28;20040;-64
2023/07/24 12:40:56;;;;;;;8.50;5.63;;;23.40;90.60;;;;;;5088101;28;20036;-64
2023/07/24 12:43:22;;;;;;;8.88;5.63;;;23.90;92.00;;;;;;5096810;28;20075;-66
2023/07/24 12:45:48;;;;;;;9.63;5.85;;;24.00;90.80;;;;;;5078267;28;20387;-66
2023/07/24 12:48:14;;;;;;;9.57;6.25;;;23.90;92.20;;;;;;5069801;28;20057;-72
2023/07/24 12:50:40;;;;;;;8.18;5.50;;;23.90;90.80;;;;;;5089746;28;20529;-68